Disclaimer

Please do not use the information listed here in-flight or in-navigation, as they are not provided to us by the airports but are provided by volunteers, so they might be outdated.

Search


Regions


Airport information page

Radio informations:
TOLUCA TWR - 118.0 MHz
Automatic Terminal Information Service (ATIS) - 127.8 MHz
TOLUCA APP - 128.9 MHz

Airport informations:
Latitude: 19° 20' 13.46" N
Longitude: 099° 33' 57.63" W
Elevation: 8466 feet - 2580 meters
Operating hours: 24 hour operations
Operating agency: Civil government, landing fees and diplomatic clearance may be required
Timezone: UTC-6(-5DT) - First Sunday in April to the last Saturday in October
Fuel: Jet A, without icing inhibitor.

100/130 octane gasoline, leaded, MIL-L-5572F (GREEN)

Runway information:
15/33 - 13780 x 148 feet< - >4200 x 45 meters

Recent METARs:
MMTO 191546Z 00000KT 5SM SKC 12/03 A3048 RMK HZY
MMTO 191612Z 00000KT 5SM SKC 14/02 A3047 RMK HZY
MMTO 191646Z 00000KT 6SM SKC 16/01 A3046 RMK HZY

Airport on the map: